createdAt,value
2023-03-05T00:01:16.487Z,55.38
2023-03-05T00:03:44.809Z,54.17
2023-03-05T00:06:12.956Z,54.63
2023-03-05T00:08:41.080Z,52.15
2023-03-05T00:11:09.988Z,52.08
2023-03-05T00:13:38.155Z,52.22
2023-03-05T00:16:07.058Z,51.75
2023-03-05T00:18:36.753Z,51.67
2023-03-05T00:21:05.300Z,49.55
2023-03-05T00:23:33.450Z,49.42
2023-03-05T00:26:03.708Z,49.05
2023-03-05T00:28:31.799Z,49.60
2023-03-05T00:31:01.346Z,46.92
2023-03-05T00:33:29.516Z,46.22
2023-03-05T00:36:01.853Z,46.38
2023-03-05T00:38:30.072Z,46.45
2023-03-05T00:40:58.305Z,46.65
2023-03-05T00:43:26.859Z,44.92
2023-03-05T00:45:54.983Z,44.42
2023-03-05T00:48:23.449Z,44.30
2023-03-05T00:50:51.532Z,43.28
2023-03-05T00:53:21.252Z,40.58
2023-03-05T00:55:49.404Z,41.40
2023-03-05T00:58:17.468Z,42.63
2023-03-05T01:00:45.568Z,42.92
2023-03-05T01:03:13.748Z,41.30
2023-03-05T01:05:42.025Z,39.47
2023-03-05T01:08:10.122Z,39.90
2023-03-05T01:10:39.591Z,38.85
2023-03-05T01:13:07.693Z,38.65
2023-03-05T01:15:35.770Z,37.72
2023-03-05T01:18:03.948Z,36.83
2023-03-05T01:20:32.056Z,37.90
2023-03-05T01:23:01.868Z,37.50
2023-03-05T01:25:30.018Z,35.70
2023-03-05T01:27:59.522Z,35.55
2023-03-05T01:30:27.600Z,36.00
2023-03-05T01:32:56.551Z,34.78
2023-03-05T01:35:25.503Z,34.53
2023-03-05T01:37:53.663Z,33.60
2023-03-05T01:40:22.614Z,33.90
2023-03-05T01:42:51.149Z,32.90
2023-03-05T01:45:20.643Z,32.20
2023-03-05T01:47:49.087Z,32.35
2023-03-05T01:50:18.619Z,31.75
2023-03-05T01:52:47.988Z,32.17
2023-03-05T01:55:17.579Z,31.52
2023-03-05T01:57:46.907Z,30.85
2023-03-05T02:00:16.185Z,30.55
2023-03-05T02:02:46.053Z,31.02
2023-03-05T02:05:16.139Z,29.77
2023-03-05T02:07:45.274Z,28.90
2023-03-05T02:10:18.143Z,29.45
2023-03-05T02:12:46.285Z,28.83
2023-03-05T02:15:14.361Z,28.17
2023-03-05T02:17:42.495Z,27.90
2023-03-05T02:20:13.827Z,27.38
2023-03-05T02:22:43.326Z,27.13
2023-03-05T02:25:18.540Z,26.80
2023-03-05T02:27:51.772Z,26.63
2023-03-05T02:30:20.041Z,25.75
2023-03-05T02:32:48.265Z,25.92
2023-03-05T02:35:16.534Z,26.13
2023-03-05T02:37:46.199Z,25.48
2023-03-05T02:40:15.088Z,24.35
2023-03-05T02:42:43.510Z,24.48
2023-03-05T02:45:13.509Z,24.05
2023-03-05T02:47:41.754Z,24.88
2023-03-05T02:50:11.410Z,23.60
2023-03-05T02:52:40.420Z,23.02
2023-03-05T02:55:14.455Z,23.23
2023-03-05T02:57:43.291Z,22.23
2023-03-05T03:00:12.789Z,22.30
2023-03-05T03:02:41.079Z,21.92
2023-03-05T03:05:10.315Z,20.70
2023-03-05T03:07:38.392Z,20.90
2023-03-05T03:10:07.370Z,20.85
2023-03-05T03:12:39.504Z,20.42
2023-03-05T03:15:09.287Z,21.70
2023-03-05T03:17:37.663Z,20.42
2023-03-05T03:20:06.534Z,20.90
2023-03-05T03:22:34.643Z,18.92
2023-03-05T03:25:02.777Z,20.27
2023-03-05T03:27:30.908Z,20.77
2023-03-05T03:30:02.663Z,19.13
2023-03-05T03:32:30.854Z,18.98
2023-03-05T03:34:59.006Z,18.48
2023-03-05T03:37:27.124Z,19.55
2023-03-05T03:39:55.235Z,17.58
2023-03-05T03:42:23.898Z,18.52
2023-03-05T03:44:52.090Z,17.65
2023-03-05T03:47:21.674Z,17.88
2023-03-05T03:49:49.782Z,17.00
2023-03-05T03:52:17.885Z,17.58
2023-03-05T03:54:46.018Z,16.83
2023-03-05T03:57:14.119Z,17.25
2023-03-05T03:59:42.399Z,14.95
2023-03-05T04:02:10.494Z,14.70
2023-03-05T04:04:40.080Z,14.02
2023-03-05T04:07:08.284Z,14.93
2023-03-05T04:09:36.344Z,15.02
2023-03-05T04:12:04.644Z,15.38
2023-03-05T04:14:32.708Z,15.15
2023-03-05T04:17:00.871Z,15.20
2023-03-05T04:19:30.748Z,14.93
2023-03-05T04:22:00.508Z,14.13
2023-03-05T04:24:28.615Z,14.02
2023-03-05T04:26:56.848Z,13.98
2023-03-05T04:29:24.908Z,13.65
2023-03-05T04:31:53.017Z,14.27
2023-03-05T04:34:21.093Z,13.95
2023-03-05T04:36:49.202Z,13.20
2023-03-05T04:39:20.978Z,13.55
2023-03-05T04:41:49.183Z,13.13
2023-03-05T04:44:17.800Z,12.70
2023-03-05T04:46:46.150Z,12.50
2023-03-05T04:49:14.333Z,12.50
2023-03-05T04:51:42.439Z,13.43
2023-03-05T04:54:10.588Z,13.00
2023-03-05T04:56:40.070Z,12.10
2023-03-05T04:59:08.183Z,11.73
2023-03-05T05:01:36.245Z,13.02
2023-03-05T05:04:04.496Z,12.27
2023-03-05T05:06:32.600Z,12.48
2023-03-05T05:09:00.660Z,12.02
2023-03-05T05:11:28.738Z,11.63
2023-03-05T05:13:58.270Z,12.80
2023-03-05T05:16:26.434Z,11.50
2023-03-05T05:18:54.613Z,12.15
2023-03-05T05:21:22.722Z,10.82
2023-03-05T05:23:50.826Z,11.68
2023-03-05T05:26:18.915Z,11.48
2023-03-05T05:28:47.172Z,11.68
2023-03-05T05:31:17.186Z,11.25
2023-03-05T05:33:46.333Z,10.95
2023-03-05T05:36:16.318Z,11.13
2023-03-05T05:38:44.393Z,10.57
2023-03-05T05:41:13.344Z,11.20
2023-03-05T05:43:41.526Z,11.30
2023-03-05T05:46:12.226Z,10.75
2023-03-05T05:48:41.896Z,11.18
2023-03-05T05:51:12.120Z,9.88
2023-03-05T05:53:40.358Z,10.50
2023-03-05T05:56:09.244Z,10.32
2023-03-05T05:58:37.507Z,10.40
2023-03-05T06:01:13.332Z,10.10
2023-03-05T06:03:42.846Z,9.73
2023-03-05T06:06:11.961Z,10.05
2023-03-05T06:08:40.135Z,9.48
2023-03-05T06:11:08.396Z,10.25
2023-03-05T06:13:36.563Z,9.32
2023-03-05T06:16:05.774Z,9.45
2023-03-05T06:18:34.408Z,9.52
2023-03-05T06:21:04.847Z,10.20
2023-03-05T06:23:32.978Z,9.05
2023-03-05T06:26:01.265Z,9.35
2023-03-05T06:28:29.491Z,9.50
2023-03-05T06:31:03.916Z,9.52
2023-03-05T06:33:32.035Z,8.88
2023-03-05T06:36:00.222Z,9.25
2023-03-05T06:38:30.192Z,9.05
2023-03-05T06:41:02.020Z,8.85
2023-03-05T06:43:30.112Z,9.27
2023-03-05T06:46:04.893Z,8.60
2023-03-05T06:48:33.443Z,8.82
2023-03-05T06:51:01.880Z,9.15
2023-03-05T06:53:31.340Z,8.63
2023-03-05T06:56:02.104Z,8.43
2023-03-05T06:58:30.242Z,8.98
2023-03-05T07:00:58.428Z,9.40
2023-03-05T07:03:26.528Z,8.95
2023-03-05T07:05:54.692Z,9.10
2023-03-05T07:08:22.769Z,8.88
2023-03-05T07:10:52.268Z,8.55
2023-03-05T07:13:20.370Z,8.38
2023-03-05T07:15:48.593Z,9.63
2023-03-05T07:18:16.645Z,9.43
2023-03-05T07:20:44.784Z,10.70
2023-03-05T07:23:12.860Z,16.30
2023-03-05T07:25:41.038Z,13.40
2023-03-05T07:28:10.689Z,21.25
2023-03-05T07:30:38.960Z,20.33
2023-03-05T07:33:07.069Z,22.75
2023-03-05T07:35:35.175Z,27.10
2023-03-05T07:38:03.321Z,27.55
2023-03-05T07:40:31.365Z,24.95
2023-03-05T07:42:59.468Z,27.00
2023-03-05T07:45:33.306Z,27.27
2023-03-05T07:48:01.418Z,27.10
2023-03-05T07:50:29.551Z,30.10
2023-03-05T07:52:57.755Z,35.00
2023-03-05T07:55:25.944Z,28.92
2023-03-05T07:57:54.263Z,30.65
2023-03-05T08:00:22.675Z,35.53
2023-03-05T08:02:52.178Z,34.72
2023-03-05T08:05:20.459Z,38.95
2023-03-05T08:07:48.621Z,41.33
2023-03-05T08:10:16.719Z,42.85
2023-03-05T08:12:44.828Z,42.53
2023-03-05T08:15:13.236Z,42.38
2023-03-05T08:17:41.376Z,48.75
2023-03-05T08:20:12.397Z,52.60
2023-03-05T08:22:40.486Z,52.97
2023-03-05T08:25:09.218Z,54.78
2023-03-05T08:27:40.056Z,55.15
2023-03-05T08:30:09.748Z,54.10
2023-03-05T08:32:37.858Z,53.90
2023-03-05T08:35:06.978Z,52.55
2023-03-05T08:37:36.434Z,52.78
2023-03-05T08:40:05.224Z,51.92
2023-03-05T08:42:33.275Z,50.50
2023-03-05T08:45:01.522Z,50.83
2023-03-05T08:47:29.605Z,50.15
2023-03-05T08:49:58.564Z,50.67
2023-03-05T08:52:27.347Z,52.40
2023-03-05T08:54:57.112Z,56.15
2023-03-05T08:57:25.182Z,60.10
2023-03-05T08:59:53.276Z,66.70
2023-03-05T09:02:21.371Z,69.57
2023-03-05T09:04:49.482Z,73.07
2023-03-05T09:07:17.698Z,75.13
2023-03-05T09:09:45.812Z,75.85
2023-03-05T09:12:16.039Z,76.80
2023-03-05T09:14:44.170Z,79.15
2023-03-05T09:17:12.249Z,83.38
2023-03-05T09:19:40.347Z,84.00
2023-03-05T09:22:08.413Z,87.47
2023-03-05T09:24:36.526Z,88.72
2023-03-05T09:27:04.718Z,94.22
2023-03-05T09:29:34.195Z,95.68
2023-03-05T09:32:02.410Z,75.57
2023-03-05T09:34:30.596Z,62.78
2023-03-05T09:36:58.788Z,56.03
2023-03-05T09:39:27.008Z,53.60
2023-03-05T09:42:12.931Z,47.63
2023-03-05T09:44:46.655Z,44.40
2023-03-05T09:47:23.310Z,73.10
2023-03-05T09:49:54.452Z,58.03
2023-03-05T09:52:23.378Z,63.28
2023-03-05T09:54:54.657Z,64.57
2023-03-05T09:57:24.117Z,60.45
2023-03-05T09:59:55.213Z,61.92
2023-03-05T10:02:25.776Z,62.88
2023-03-05T10:04:56.025Z,64.35
2023-03-05T10:07:27.197Z,70.13
2023-03-05T10:09:57.200Z,64.95
2023-03-05T10:12:28.810Z,64.28
2023-03-05T10:15:00.637Z,62.28
2023-03-05T10:17:47.323Z,60.60
2023-03-05T10:20:32.200Z,57.95
2023-03-05T10:23:11.395Z,57.00
2023-03-05T10:25:51.452Z,58.03
2023-03-05T10:28:21.434Z,57.10
2023-03-05T10:31:03.584Z,55.72
2023-03-05T10:33:34.261Z,55.00
2023-03-05T10:36:26.332Z,55.15
2023-03-05T10:39:05.182Z,55.33
2023-03-05T10:41:35.721Z,53.03
2023-03-05T10:44:06.212Z,52.25
2023-03-05T10:46:36.643Z,50.60
2023-03-05T10:49:07.637Z,50.80
2023-03-05T10:51:37.652Z,50.78
2023-03-05T10:54:10.344Z,50.13
2023-03-05T10:56:38.542Z,49.63
2023-03-05T10:59:06.588Z,47.90
2023-03-05T11:01:37.434Z,48.75
2023-03-05T11:04:05.972Z,46.88
2023-03-05T11:06:36.318Z,47.22
2023-03-05T11:09:18.340Z,46.40
2023-03-05T11:11:46.527Z,45.20
2023-03-05T11:14:31.174Z,44.88
2023-03-05T11:17:00.736Z,44.35
2023-03-05T11:19:32.856Z,43.72
2023-03-05T11:22:10.861Z,50.17
2023-03-05T11:24:39.006Z,48.00
2023-03-05T11:27:25.512Z,48.38
2023-03-05T11:29:53.679Z,47.58
2023-03-05T11:32:25.423Z,46.38
2023-03-05T11:34:53.759Z,46.28
2023-03-05T11:37:24.606Z,44.90
2023-03-05T11:40:08.471Z,44.65
2023-03-05T11:42:36.770Z,44.25
2023-03-05T11:45:05.570Z,44.05
2023-03-05T11:47:37.659Z,42.65
2023-03-05T11:50:13.124Z,42.58
2023-03-05T11:52:43.438Z,42.85
2023-03-05T11:55:14.255Z,40.95
2023-03-05T11:57:44.225Z,41.97
2023-03-05T12:00:16.453Z,42.75
2023-03-05T12:02:53.641Z,40.53
2023-03-05T12:05:21.844Z,40.50
2023-03-05T12:07:51.481Z,40.80
2023-03-05T12:10:21.033Z,39.72
2023-03-05T12:12:50.779Z,40.58
2023-03-05T12:15:40.116Z,38.10
2023-03-05T12:18:29.700Z,39.38
2023-03-05T12:21:02.732Z,38.03
2023-03-05T12:23:31.082Z,37.38
2023-03-05T12:26:01.332Z,36.53
2023-03-05T12:28:57.121Z,36.90
2023-03-05T12:31:39.524Z,36.30
2023-03-05T12:34:49.212Z,37.88
2023-03-05T12:37:50.591Z,34.55
2023-03-05T12:40:23.065Z,35.85
2023-03-05T12:42:56.035Z,35.17
2023-03-05T12:45:29.202Z,33.92
2023-03-05T12:48:33.484Z,33.75
2023-03-05T12:51:03.231Z,34.83
2023-03-05T12:53:31.568Z,33.97
2023-03-05T12:56:04.085Z,32.90
2023-03-05T12:58:38.735Z,33.13
2023-03-05T13:01:13.600Z,32.95
2023-03-05T13:03:45.098Z,32.40
2023-03-05T13:06:25.893Z,32.53
2023-03-05T13:08:58.182Z,32.75
2023-03-05T13:11:26.316Z,31.17
2023-03-05T13:13:54.466Z,30.23
2023-03-05T13:16:24.583Z,31.42
2023-03-05T13:18:52.937Z,30.25
2023-03-05T13:21:21.794Z,29.95
2023-03-05T13:23:57.786Z,30.67
2023-03-05T13:26:26.935Z,30.60
2023-03-05T13:29:08.550Z,28.88
2023-03-05T13:31:36.976Z,27.63
2023-03-05T13:34:11.403Z,29.38
2023-03-05T13:36:39.552Z,28.38
2023-03-05T13:39:09.033Z,27.90
2023-03-05T13:41:37.127Z,28.45
2023-03-05T13:44:05.295Z,26.77
2023-03-05T13:46:34.317Z,26.63
2023-03-05T13:49:18.331Z,26.98
2023-03-05T13:51:47.373Z,27.42
2023-03-05T13:54:17.834Z,27.52
2023-03-05T13:56:53.685Z,27.27
2023-03-05T13:59:22.673Z,26.35
2023-03-05T14:01:50.751Z,25.60
2023-03-05T14:04:21.766Z,25.27
2023-03-05T14:06:50.615Z,25.90
2023-03-05T14:09:21.845Z,25.58
2023-03-05T14:11:57.436Z,25.17
2023-03-05T14:14:25.852Z,24.48
2023-03-05T14:16:54.006Z,24.95
2023-03-05T14:19:36.707Z,23.98
2023-03-05T14:22:05.016Z,24.42
2023-03-05T14:24:34.716Z,23.88
2023-03-05T14:27:05.720Z,23.25
2023-03-05T14:29:33.920Z,22.90
2023-03-05T14:32:04.128Z,23.52
2023-03-05T14:34:33.093Z,23.20
2023-03-05T14:37:03.217Z,21.98
2023-03-05T14:39:41.280Z,22.35
2023-03-05T14:42:29.187Z,22.40
2023-03-05T14:44:58.103Z,22.00
2023-03-05T14:47:26.292Z,21.30
2023-03-05T14:49:54.388Z,21.48
2023-03-05T14:52:23.480Z,21.10
2023-03-05T14:54:53.189Z,20.45
2023-03-05T14:57:22.501Z,20.52
2023-03-05T14:59:50.639Z,20.25
2023-03-05T15:02:19.271Z,20.27
2023-03-05T15:04:47.519Z,21.15
2023-03-05T15:07:20.417Z,20.27
2023-03-05T15:09:48.563Z,20.08
2023-03-05T15:12:18.129Z,20.63
2023-03-05T15:14:46.239Z,20.38
2023-03-05T15:17:19.162Z,19.88
2023-03-05T15:19:47.853Z,20.35
2023-03-05T15:22:16.271Z,19.58
2023-03-05T15:24:44.414Z,19.42
2023-03-05T15:27:12.629Z,19.48
2023-03-05T15:29:42.138Z,18.90
2023-03-05T15:32:10.316Z,18.70
2023-03-05T15:34:38.478Z,19.48
2023-03-05T15:37:06.611Z,18.95
2023-03-05T15:39:34.722Z,19.15
2023-03-05T15:42:04.450Z,18.40
2023-03-05T15:44:33.405Z,18.08
2023-03-05T15:47:02.938Z,17.73
2023-03-05T15:49:31.075Z,17.92
2023-03-05T15:51:59.158Z,18.45
2023-03-05T15:54:27.768Z,17.85
2023-03-05T15:56:55.828Z,17.35
2023-03-05T15:59:24.026Z,17.15
2023-03-05T16:01:52.877Z,17.73
2023-03-05T16:04:22.412Z,17.27
2023-03-05T16:06:50.560Z,16.48
2023-03-05T16:09:20.189Z,16.90
2023-03-05T16:11:51.326Z,16.73
2023-03-05T16:14:21.038Z,16.77
2023-03-05T16:16:49.067Z,16.50
2023-03-05T16:19:17.831Z,16.17
2023-03-05T16:21:47.432Z,15.98
2023-03-05T16:24:15.534Z,15.60
2023-03-05T16:26:43.656Z,15.85
2023-03-05T16:29:12.495Z,15.98
2023-03-05T16:31:43.116Z,15.80
2023-03-05T16:34:14.067Z,15.10
2023-03-05T16:36:42.210Z,13.88
2023-03-05T16:39:11.697Z,15.63
2023-03-05T16:41:39.823Z,20.42
2023-03-05T16:44:07.953Z,23.77
2023-03-05T16:46:36.069Z,26.33
2023-03-05T16:49:04.586Z,30.35
2023-03-05T16:51:32.693Z,27.02
2023-03-05T16:54:00.851Z,27.38
2023-03-05T16:56:30.302Z,29.05
2023-03-05T16:58:58.411Z,27.80
2023-03-05T17:01:26.994Z,30.95
2023-03-05T17:03:55.226Z,30.13
2023-03-05T17:06:24.330Z,32.80
2023-03-05T17:08:52.736Z,34.75
2023-03-05T17:11:21.266Z,33.72
2023-03-05T17:13:50.863Z,34.35
2023-03-05T17:16:19.479Z,31.92
2023-03-05T17:18:47.685Z,35.83
2023-03-05T17:21:16.564Z,34.78
2023-03-05T17:23:44.721Z,35.25
2023-03-05T17:26:13.871Z,34.45
2023-03-05T17:28:42.118Z,35.20
2023-03-05T17:31:11.642Z,35.90
2023-03-05T17:33:39.987Z,33.65
2023-03-05T17:36:14.984Z,35.65
2023-03-05T17:38:43.100Z,35.20
2023-03-05T17:41:11.382Z,33.65
2023-03-05T17:43:39.569Z,32.33
2023-03-05T17:46:07.808Z,32.72
2023-03-05T17:48:39.231Z,33.00
2023-03-05T17:51:07.508Z,32.40
2023-03-05T17:53:36.097Z,31.42
2023-03-05T17:56:07.217Z,32.13
2023-03-05T17:58:35.398Z,29.17
2023-03-05T18:01:03.523Z,26.92
2023-03-05T18:03:31.679Z,26.13
2023-03-05T18:06:01.164Z,25.02
2023-03-05T18:08:29.348Z,25.65
2023-03-05T18:10:57.414Z,25.00
2023-03-05T18:13:25.664Z,24.20
2023-03-05T18:15:53.724Z,25.75
2023-03-05T18:18:21.859Z,27.27
2023-03-05T18:20:50.559Z,27.83
2023-03-05T18:23:20.134Z,30.88
2023-03-05T18:25:48.174Z,33.65
2023-03-05T18:28:16.909Z,35.50
2023-03-05T18:30:45.912Z,34.53
2023-03-05T18:33:16.466Z,36.10
2023-03-05T18:35:44.624Z,36.78
2023-03-05T18:38:12.916Z,36.08
2023-03-05T18:40:43.858Z,38.97
2023-03-05T18:43:12.128Z,38.45
2023-03-05T18:45:40.391Z,39.15
2023-03-05T18:48:08.928Z,39.10
2023-03-05T18:50:37.072Z,39.63
2023-03-05T18:53:05.179Z,39.47
2023-03-05T18:55:33.415Z,39.20
2023-03-05T18:58:05.068Z,40.17
2023-03-05T19:00:33.528Z,40.08
2023-03-05T19:03:03.546Z,41.00
2023-03-05T19:05:32.321Z,41.53
2023-03-05T19:08:00.732Z,42.30
2023-03-05T19:10:29.087Z,42.25
2023-03-05T19:13:39.929Z,42.20
2023-03-05T19:16:10.403Z,42.70
2023-03-05T19:19:18.329Z,44.22
2023-03-05T19:21:47.481Z,45.45
2023-03-05T19:24:15.791Z,44.33
2023-03-05T19:26:44.548Z,48.67
2023-03-05T19:29:14.151Z,48.05
2023-03-05T19:31:42.482Z,47.75
2023-03-05T19:34:10.698Z,49.95
2023-03-05T19:36:38.972Z,49.33
2023-03-05T19:39:07.432Z,48.15
2023-03-05T19:41:36.043Z,49.47
2023-03-05T19:44:04.211Z,48.42
2023-03-05T19:46:34.125Z,48.80
2023-03-05T19:49:02.345Z,48.42
2023-03-05T19:51:30.569Z,49.92
2023-03-05T19:53:58.866Z,49.20
2023-03-05T19:56:27.118Z,51.17
2023-03-05T19:58:55.669Z,48.95
2023-03-05T20:01:26.072Z,50.13
2023-03-05T20:03:56.815Z,50.08
2023-03-05T20:06:25.157Z,53.38
2023-03-05T20:08:53.357Z,51.40
2023-03-05T20:11:21.751Z,52.85
2023-03-05T20:13:50.344Z,53.00
2023-03-05T20:16:23.518Z,54.25
2023-03-05T20:18:53.062Z,59.25
2023-03-05T20:21:24.184Z,58.03
2023-03-05T20:23:52.895Z,60.85
2023-03-05T20:26:21.149Z,63.35
2023-03-05T20:28:50.097Z,62.53
2023-03-05T20:31:19.305Z,63.47
2023-03-05T20:33:47.657Z,63.70
2023-03-05T20:36:15.853Z,67.80
2023-03-05T20:38:45.909Z,67.75
2023-03-05T20:41:15.272Z,67.53
2023-03-05T20:43:44.917Z,69.57
2023-03-05T20:46:16.912Z,67.05
2023-03-05T20:48:45.832Z,67.45
2023-03-05T20:51:14.687Z,67.10
2023-03-05T20:53:43.209Z,67.85
2023-03-05T20:56:12.701Z,70.35
2023-03-05T20:58:40.807Z,67.53
2023-03-05T21:01:08.981Z,68.72
2023-03-05T21:03:38.816Z,66.95
2023-03-05T21:06:07.499Z,68.15
2023-03-05T21:08:35.694Z,67.03
2023-03-05T21:11:06.514Z,67.70
2023-03-05T21:13:36.088Z,68.03
2023-03-05T21:16:07.457Z,66.50
2023-03-05T21:18:35.605Z,69.55
2023-03-05T21:21:03.722Z,66.43
2023-03-05T21:23:32.846Z,66.53
2023-03-05T21:26:00.903Z,65.32
2023-03-05T21:28:30.030Z,66.05
2023-03-05T21:30:59.533Z,68.10
2023-03-05T21:33:28.714Z,65.47
2023-03-05T21:35:58.137Z,63.22
2023-03-05T21:38:29.845Z,63.92
2023-03-05T21:40:58.959Z,62.67
2023-03-05T21:43:27.251Z,64.35
2023-03-05T21:45:57.217Z,60.60
2023-03-05T21:48:26.916Z,62.88
2023-03-05T21:50:55.508Z,60.75
2023-03-05T21:53:23.736Z,61.47
2023-03-05T21:56:25.165Z,60.50
2023-03-05T21:58:53.430Z,59.90
2023-03-05T22:01:22.188Z,59.40
2023-03-05T22:03:51.837Z,59.45
2023-03-05T22:06:22.555Z,59.88
2023-03-05T22:08:51.346Z,58.40
2023-03-05T22:11:20.869Z,56.10
2023-03-05T22:13:49.144Z,56.38
2023-03-05T22:16:24.351Z,54.75
2023-03-05T22:18:54.097Z,55.55
2023-03-05T22:21:23.206Z,55.20
2023-03-05T22:23:51.325Z,56.78
2023-03-05T22:26:19.411Z,55.88
2023-03-05T22:28:47.556Z,58.42
2023-03-05T22:31:21.065Z,58.05
2023-03-05T22:33:49.240Z,59.88
2023-03-05T22:36:18.683Z,63.28
2023-03-05T22:38:47.002Z,62.33
2023-03-05T22:41:15.988Z,65.75
2023-03-05T22:43:44.198Z,66.22
2023-03-05T22:46:12.759Z,65.38
2023-03-05T22:48:41.091Z,62.55
2023-03-05T22:51:09.467Z,64.68
2023-03-05T22:53:39.004Z,63.75
2023-03-05T22:56:08.163Z,63.47
2023-03-05T22:58:36.264Z,62.15
2023-03-05T23:01:04.587Z,63.20
2023-03-05T23:03:32.784Z,65.03
2023-03-05T23:06:00.956Z,64.30
2023-03-05T23:08:29.042Z,63.55
2023-03-05T23:10:58.543Z,63.10
2023-03-05T23:13:26.651Z,61.53
2023-03-05T23:15:54.785Z,61.65
2023-03-05T23:18:22.899Z,62.45
2023-03-05T23:20:53.630Z,68.22
2023-03-05T23:23:21.800Z,67.63
2023-03-05T23:25:51.206Z,73.50
2023-03-05T23:28:20.781Z,72.25
2023-03-05T23:30:48.931Z,74.13
2023-03-05T23:33:17.854Z,72.90
2023-03-05T23:35:51.044Z,75.68
2023-03-05T23:38:19.148Z,71.50
2023-03-05T23:40:48.097Z,73.88
2023-03-05T23:43:16.428Z,71.22
2023-03-05T23:45:48.010Z,72.22
2023-03-05T23:48:16.226Z,74.15
2023-03-05T23:50:47.538Z,73.40
2023-03-05T23:53:17.233Z,69.75
2023-03-05T23:55:45.749Z,70.07
2023-03-05T23:58:14.226Z,72.20
